SWR5YW LIRF-LSZH
Flight info
| Callsign | SWR5YW |
|---|---|
| Flight time | N/A |
| Altitude | 36000 |
| Route | SOVAN DCT AMTEL DCT PEPAG DCT CANNE Z651 DETRI/N0437F300 Z651 KELIP |
| Aircraft | A321/M-SDE3FGHIRWY/LB1 |
Departure
| Time | 2026-05-04 13:52 |
|---|---|
| Airport | Rome–Fiumicino Leonardo da Vinci International Airport (LIRF) |
Arrival
| Time | N/A |
|---|---|
| Airport | Zürich Airport (LSZH) |
| Time | Latitude | Longitude | Altitude | Speed | Heading |
|---|---|---|---|---|---|
| 2026-05-04 13:38 | 41.79730 | 12.24841 | 14 ft | 0 kts | 250° |
| 2026-05-04 13:42 | 41.79734 | 12.24856 | 14 ft | 4 kts | 250° |
| 2026-05-04 13:42 | 41.79742 | 12.24886 | 14 ft | 2 kts | 249° |
| 2026-05-04 13:43 | 41.79747 | 12.24917 | 14 ft | 4 kts | 287° |
| 2026-05-04 13:43 | 41.79733 | 12.24943 | 14 ft | 4 kts | 334° |
| 2026-05-04 13:43 | 41.79735 | 12.24942 | 14 ft | 4 kts | 340° |
| 2026-05-04 13:43 | 41.79761 | 12.24930 | 14 ft | 4 kts | 340° |
| 2026-05-04 13:44 | 41.79786 | 12.24917 | 14 ft | 4 kts | 340° |
| 2026-05-04 13:44 | 41.79811 | 12.24905 | 15 ft | 4 kts | 340° |
| 2026-05-04 13:44 | 41.79837 | 12.24893 | 14 ft | 4 kts | 340° |
| 2026-05-04 13:44 | 41.79862 | 12.24880 | 14 ft | 4 kts | 340° |
| 2026-05-04 13:45 | 41.79877 | 12.24873 | 14 ft | 0 kts | 340° |
| 2026-05-04 13:47 | 41.79890 | 12.24866 | 16 ft | 7 kts | 340° |
| 2026-05-04 13:47 | 41.79978 | 12.24822 | 14 ft | 18 kts | 340° |
| 2026-05-04 13:47 | 41.80107 | 12.24775 | 14 ft | 21 kts | 355° |
| 2026-05-04 13:47 | 41.80202 | 12.24872 | 14 ft | 19 kts | 77° |
| 2026-05-04 13:48 | 41.80209 | 12.25062 | 14 ft | 22 kts | 81° |
| 2026-05-04 13:48 | 41.80260 | 12.25268 | 15 ft | 24 kts | 70° |
| 2026-05-04 13:48 | 41.80317 | 12.25472 | 17 ft | 23 kts | 69° |
| 2026-05-04 13:48 | 41.80373 | 12.25672 | 15 ft | 23 kts | 69° |
| 2026-05-04 13:49 | 41.80429 | 12.25874 | 15 ft | 23 kts | 70° |
| 2026-05-04 13:49 | 41.80484 | 12.26076 | 16 ft | 22 kts | 70° |
| 2026-05-04 13:49 | 41.80535 | 12.26269 | 16 ft | 22 kts | 70° |
| 2026-05-04 13:49 | 41.80586 | 12.26463 | 16 ft | 22 kts | 71° |
| 2026-05-04 13:50 | 41.80638 | 12.26656 | 15 ft | 22 kts | 70° |
| 2026-05-04 13:50 | 41.80693 | 12.26852 | 14 ft | 23 kts | 69° |
| 2026-05-04 13:50 | 41.80751 | 12.27023 | 16 ft | 15 kts | 45° |
| 2026-05-04 13:50 | 41.80845 | 12.27023 | 13 ft | 14 kts | 340° |
| 2026-05-04 13:51 | 41.80936 | 12.26978 | 16 ft | 12 kts | 339° |
| 2026-05-04 13:51 | 41.80959 | 12.26945 | 13 ft | 4 kts | 282° |
| 2026-05-04 13:51 | 41.80953 | 12.26909 | 13 ft | 5 kts | 248° |
| 2026-05-04 13:51 | 41.80885 | 12.26680 | 14 ft | 62 kts | 250° |
| 2026-05-04 13:52 | 41.80303 | 12.24568 | 93 ft | 163 kts | 249° |
| 2026-05-04 13:52 | 41.79928 | 12.23166 | 717 ft | 160 kts | 249° |
| 2026-05-04 13:52 | 41.79562 | 12.21737 | 1290 ft | 165 kts | 250° |
| 2026-05-04 13:53 | 41.79234 | 12.20230 | 1771 ft | 176 kts | 260° |
| 2026-05-04 13:53 | 41.79361 | 12.18630 | 2427 ft | 173 kts | 294° |
| 2026-05-04 13:53 | 41.80050 | 12.17331 | 3060 ft | 171 kts | 309° |
| 2026-05-04 13:54 | 41.81678 | 12.14684 | 3711 ft | 203 kts | 309° |
| 2026-05-04 13:54 | 41.82603 | 12.13153 | 4085 ft | 216 kts | 308° |
| 2026-05-04 13:54 | 41.84749 | 12.10333 | 5507 ft | 221 kts | 332° |
| 2026-05-04 13:55 | 41.86280 | 12.09665 | 5870 ft | 244 kts | 352° |
| 2026-05-04 13:55 | 41.89925 | 12.08992 | 6835 ft | 278 kts | 352° |
| 2026-05-04 13:55 | 41.91858 | 12.08654 | 7644 ft | 282 kts | 353° |
| 2026-05-04 13:56 | 41.93817 | 12.08316 | 8446 ft | 286 kts | 353° |
| 2026-05-04 13:56 | 41.95806 | 12.07968 | 9229 ft | 290 kts | 352° |
| 2026-05-04 13:56 | 41.99880 | 12.07239 | 10555 ft | 308 kts | 352° |
| 2026-05-04 13:57 | 42.02084 | 12.06840 | 10775 ft | 331 kts | 352° |
| 2026-05-04 13:57 | 42.04451 | 12.06414 | 10998 ft | 354 kts | 352° |
| 2026-05-04 13:58 | 42.11980 | 12.05065 | 12965 ft | 370 kts | 352° |
| 2026-05-04 13:58 | 42.17140 | 12.04133 | 14336 ft | 377 kts | 352° |
| 2026-05-04 13:58 | 42.19749 | 12.03644 | 15015 ft | 380 kts | 351° |
| 2026-05-04 13:59 | 42.22371 | 12.03083 | 15691 ft | 383 kts | 349° |
| 2026-05-04 13:59 | 42.24973 | 12.02487 | 16328 ft | 386 kts | 349° |
| 2026-05-04 13:59 | 42.30303 | 12.01237 | 17577 ft | 391 kts | 348° |
| 2026-05-04 14:00 | 42.32994 | 12.00610 | 18170 ft | 394 kts | 348° |
| 2026-05-04 14:00 | 42.38444 | 11.99370 | 19282 ft | 400 kts | 349° |
| 2026-05-04 14:00 | 42.41200 | 11.98756 | 19806 ft | 403 kts | 349° |
| 2026-05-04 14:01 | 42.43978 | 11.98133 | 20317 ft | 406 kts | 349° |
| 2026-05-04 14:01 | 42.46773 | 11.97502 | 20803 ft | 409 kts | 349° |
| 2026-05-04 14:01 | 42.52430 | 11.96222 | 21787 ft | 415 kts | 349° |
| 2026-05-04 14:02 | 42.55288 | 11.95577 | 22259 ft | 418 kts | 349° |
| 2026-05-04 14:02 | 42.58166 | 11.94929 | 22709 ft | 421 kts | 349° |
| 2026-05-04 14:02 | 42.61066 | 11.94279 | 23158 ft | 425 kts | 349° |
| 2026-05-04 14:02 | 42.63994 | 11.93620 | 23647 ft | 428 kts | 349° |
| 2026-05-04 14:03 | 42.66935 | 11.92958 | 24105 ft | 430 kts | 349° |
| 2026-05-04 14:03 | 42.69893 | 11.92286 | 24525 ft | 432 kts | 349° |
| 2026-05-04 14:03 | 42.72870 | 11.91601 | 24945 ft | 435 kts | 349° |
| 2026-05-04 14:03 | 42.75861 | 11.90909 | 25349 ft | 437 kts | 349° |
| 2026-05-04 14:04 | 42.81885 | 11.89451 | 26148 ft | 442 kts | 345° |
| 2026-05-04 14:04 | 42.84797 | 11.88117 | 26535 ft | 442 kts | 335° |
| 2026-05-04 14:04 | 42.87541 | 11.86213 | 26924 ft | 443 kts | 330° |
| 2026-05-04 14:05 | 42.93001 | 11.82209 | 27633 ft | 448 kts | 330° |
| 2026-05-04 14:05 | 42.95752 | 11.80193 | 27972 ft | 450 kts | 330° |
| 2026-05-04 14:05 | 42.98516 | 11.78168 | 28305 ft | 452 kts | 330° |
| 2026-05-04 14:06 | 43.01293 | 11.76132 | 28636 ft | 454 kts | 330° |
| 2026-05-04 14:06 | 43.04082 | 11.74089 | 28962 ft | 456 kts | 330° |
| 2026-05-04 14:06 | 43.06883 | 11.72034 | 29279 ft | 458 kts | 330° |
| 2026-05-04 14:06 | 43.09694 | 11.69967 | 29565 ft | 460 kts | 330° |
| 2026-05-04 14:07 | 43.12513 | 11.67890 | 29935 ft | 460 kts | 330° |
| 2026-05-04 14:07 | 43.15329 | 11.65817 | 30361 ft | 459 kts | 330° |
| 2026-05-04 14:07 | 43.18133 | 11.63748 | 30785 ft | 457 kts | 330° |
| 2026-05-04 14:07 | 43.20924 | 11.61682 | 31204 ft | 456 kts | 330° |
| 2026-05-04 14:08 | 43.23686 | 11.59562 | 31617 ft | 454 kts | 328° |
| 2026-05-04 14:08 | 43.26385 | 11.57326 | 32035 ft | 452 kts | 327° |
| 2026-05-04 14:08 | 43.29033 | 11.55008 | 32443 ft | 451 kts | 326° |
| 2026-05-04 14:08 | 43.31652 | 11.52648 | 32850 ft | 450 kts | 325° |
| 2026-05-04 14:09 | 43.36866 | 11.47944 | 33641 ft | 447 kts | 326° |
| 2026-05-04 14:09 | 43.39473 | 11.45640 | 34020 ft | 446 kts | 326° |
| 2026-05-04 14:10 | 43.44699 | 11.41086 | 34751 ft | 443 kts | 326° |
| 2026-05-04 14:10 | 43.47305 | 11.38820 | 35066 ft | 443 kts | 326° |
| 2026-05-04 14:10 | 43.49907 | 11.36552 | 35404 ft | 442 kts | 326° |
| 2026-05-04 14:10 | 43.52502 | 11.34283 | 35740 ft | 441 kts | 326° |
| 2026-05-04 14:11 | 43.55040 | 11.32056 | 36027 ft | 441 kts | 326° |